Time,TemperatureF,DewpointF,PressureIn,WindDirection,WindDirectionDegrees,WindSpeedMPH,WindSpeedGustMPH,Humidity,HourlyPrecipIn,Conditions,Clouds,dailyrainin,SoftwareType,DateUTC
2013-05-18 00:07:00,44.6,39.8,29.77,ENE,67,0.0,-999.0,83,-99.99,,,0.00,Acu-Link.com,2013-05-18 07:07:00,
2013-05-18 00:22:00,44.6,39.8,29.78,NE,45,0.0,-999.0,83,-99.99,,,0.00,Acu-Link.com,2013-05-18 07:22:00,
2013-05-18 00:37:00,44.6,40.1,29.78,NE,45,0.0,-999.0,84,-99.99,,,0.00,Acu-Link.com,2013-05-18 07:37:00,
2013-05-18 00:53:00,44.6,40.4,29.78,NE,45,0.0,-999.0,85,-99.99,,,0.00,Acu-Link.com,2013-05-18 07:53:00,
2013-05-18 01:09:00,44.6,40.4,29.79,WSW,247,0.0,-999.0,85,-99.99,,,0.00,Acu-Link.com,2013-05-18 08:09:00,
2013-05-18 01:24:00,44.6,40.7,29.79,SSW,202,0.0,-999.0,86,-99.99,,,0.00,Acu-Link.com,2013-05-18 08:24:00,
2013-05-18 01:39:00,42.8,39.2,29.78,ESE,112,0.0,-999.0,87,-99.99,,,0.00,Acu-Link.com,2013-05-18 08:39:00,
2013-05-18 01:55:00,44.6,41.3,29.79,SSW,202,0.0,-999.0,88,-99.99,,,0.00,Acu-Link.com,2013-05-18 08:55:00,
2013-05-18 02:10:00,42.8,39.2,29.79,WSW,247,0.0,-999.0,87,-99.99,,,0.00,Acu-Link.com,2013-05-18 09:10:00,
2013-05-18 02:25:00,42.8,39.8,29.80,NE,45,0.0,-999.0,89,-99.99,,,0.00,Acu-Link.com,2013-05-18 09:25:00,
2013-05-18 02:40:00,42.8,40.1,29.80,NE,45,0.0,-999.0,90,-99.99,,,0.00,Acu-Link.com,2013-05-18 09:40:00,
2013-05-18 02:55:00,42.8,40.4,29.79,NE,45,0.0,-999.0,91,-99.99,,,0.00,Acu-Link.com,2013-05-18 09:55:00,
2013-05-18 03:10:00,42.8,42.3,29.80,South,180,0.0,-999.0,98,-99.99,,,0.00,Acu-Link.com,2013-05-18 10:10:00,
2013-05-18 03:25:00,42.8,40.4,29.80,West,270,0.0,-999.0,91,-99.99,,,0.00,Acu-Link.com,2013-05-18 10:25:00,
2013-05-18 03:40:00,42.8,42.3,29.80,East,90,0.0,-999.0,98,-99.99,,,0.00,Acu-Link.com,2013-05-18 10:40:00,
2013-05-18 03:55:00,42.8,42.0,29.80,ESE,112,0.0,-999.0,97,-99.99,,,0.00,Acu-Link.com,2013-05-18 10:55:00,
2013-05-18 04:11:00,42.8,40.1,29.81,SSE,157,0.0,-999.0,90,-99.99,,,0.00,Acu-Link.com,2013-05-18 11:11:00,
2013-05-18 04:26:00,42.8,40.1,29.81,ESE,112,1.1,-999.0,90,-99.99,,,0.00,Acu-Link.com,2013-05-18 11:26:00,
2013-05-18 04:41:00,42.8,42.3,29.81,WSW,247,0.0,-999.0,98,-99.99,,,0.00,Acu-Link.com,2013-05-18 11:41:00,
2013-05-18 04:56:00,42.8,41.2,29.81,ESE,112,0.0,-999.0,94,-99.99,,,0.00,Acu-Link.com,2013-05-18 11:56:00,
2013-05-18 05:11:00,42.8,40.4,29.80,SSW,202,0.0,-999.0,91,-99.99,,,0.00,Acu-Link.com,2013-05-18 12:11:00,
2013-05-18 05:26:00,42.8,40.4,29.81,SSW,202,0.0,-999.0,91,-99.99,,,0.00,Acu-Link.com,2013-05-18 12:26:00,
2013-05-18 05:41:00,42.8,40.6,29.81,SE,135,0.0,-999.0,92,-99.99,,,0.00,Acu-Link.com,2013-05-18 12:41:00,
2013-05-18 05:57:00,42.8,40.4,29.81,SE,135,0.0,-999.0,91,-99.99,,,0.00,Acu-Link.com,2013-05-18 12:57:00,
2013-05-18 06:12:00,42.8,42.3,29.82,ESE,112,0.0,-999.0,98,-99.99,,,0.00,Acu-Link.com,2013-05-18 13:12:00,
2013-05-18 06:27:00,44.6,44.1,29.82,ESE,112,0.0,-999.0,98,-99.99,,,0.00,Acu-Link.com,2013-05-18 13:27:00,
2013-05-18 06:42:00,44.6,44.1,29.83,ESE,112,0.0,-999.0,98,-99.99,,,0.00,Acu-Link.com,2013-05-18 13:42:00,
2013-05-18 06:57:00,46.4,42.4,29.83,East,90,0.0,-999.0,86,-99.99,,,0.00,Acu-Link.com,2013-05-18 13:57:00,
2013-05-18 07:13:00,46.4,41.8,29.83,WSW,247,0.0,-999.0,84,-99.99,,,0.00,Acu-Link.com,2013-05-18 14:13:00,
2013-05-18 07:28:00,48.2,43.6,29.84,SW,225,0.0,-999.0,84,-99.99,,,0.00,Acu-Link.com,2013-05-18 14:28:00,
2013-05-18 07:43:00,48.2,42.6,29.85,ESE,112,0.0,-999.0,81,-99.99,,,0.00,Acu-Link.com,2013-05-18 14:43:00,
2013-05-18 07:58:00,48.2,42.3,29.84,SSE,157,0.0,-999.0,80,-99.99,,,0.00,Acu-Link.com,2013-05-18 14:58:00,
2013-05-18 08:13:00,50.0,43.1,29.85,South,180,0.0,-999.0,77,-99.99,,,0.00,Acu-Link.com,2013-05-18 15:13:00,
2013-05-18 08:29:00,51.8,42.3,29.85,WSW,247,0.0,-999.0,70,-99.99,,,0.00,Acu-Link.com,2013-05-18 15:29:00,
2013-05-18 08:44:00,53.6,42.9,29.85,SSW,202,2.7,-999.0,67,-99.99,,,0.00,Acu-Link.com,2013-05-18 15:44:00,
2013-05-18 08:59:00,51.8,40.8,29.85,NNW,337,2.7,-999.0,66,-99.99,,,0.00,Acu-Link.com,2013-05-18 15:59:00,
2013-05-18 09:14:00,53.6,41.7,29.85,NNE,22,0.0,-999.0,64,-99.99,,,0.00,Acu-Link.com,2013-05-18 16:14:00,
2013-05-18 09:29:00,53.6,42.5,29.86,ESE,112,0.0,-999.0,66,-99.99,,,0.00,Acu-Link.com,2013-05-18 16:29:00,
2013-05-18 09:45:00,53.6,40.1,29.86,SSW,202,3.1,-999.0,60,-99.99,,,0.00,Acu-Link.com,2013-05-18 16:45:00,
2013-05-18 10:00:00,55.4,41.3,29.85,NE,45,2.0,-999.0,59,-99.99,,,0.00,Acu-Link.com,2013-05-18 17:00:00,
2013-05-18 10:15:00,55.4,39.5,29.86,NE,45,0.0,-999.0,55,-99.99,,,0.00,Acu-Link.com,2013-05-18 17:15:00,
2013-05-18 10:30:00,55.4,40.9,29.86,NNE,22,0.0,-999.0,58,-99.99,,,0.00,Acu-Link.com,2013-05-18 17:30:00,
2013-05-18 10:46:00,57.2,39.2,29.86,ESE,112,1.6,-999.0,51,-99.99,,,0.00,Acu-Link.com,2013-05-18 17:46:00,
2013-05-18 11:01:00,55.4,37.6,29.86,NNE,22,1.6,-999.0,51,-99.99,,,0.00,Acu-Link.com,2013-05-18 18:01:00,
2013-05-18 11:16:00,55.4,39.5,29.86,East,90,0.0,-999.0,55,-99.99,,,0.00,Acu-Link.com,2013-05-18 18:16:00,
2013-05-18 11:31:00,59.0,39.3,29.86,SW,225,1.1,-999.0,48,-99.99,,,0.00,Acu-Link.com,2013-05-18 18:31:00,
2013-05-18 11:46:00,57.2,38.2,29.86,NNE,22,2.0,-999.0,49,-99.99,,,0.00,Acu-Link.com,2013-05-18 18:46:00,
2013-05-18 12:01:00,59.0,38.8,29.86,NE,45,2.0,-999.0,47,-99.99,,,0.00,Acu-Link.com,2013-05-18 19:01:00,
2013-05-18 12:16:00,59.0,40.4,29.86,South,180,0.0,-999.0,50,-99.99,,,0.00,Acu-Link.com,2013-05-18 19:16:00,
2013-05-18 12:31:00,62.6,37.9,29.86,NE,45,2.7,-999.0,40,-99.99,,,0.00,Acu-Link.com,2013-05-18 19:31:00,
2013-05-18 12:46:00,60.8,37.0,29.86,NE,45,1.6,-999.0,41,-99.99,,,0.00,Acu-Link.com,2013-05-18 19:46:00,
2013-05-18 13:01:00,62.6,39.2,29.86,SSW,202,2.7,-999.0,42,-99.99,,,0.00,Acu-Link.com,2013-05-18 20:01:00,
2013-05-18 13:16:00,60.8,35.0,29.86,ENE,67,0.0,-999.0,38,-99.99,,,0.00,Acu-Link.com,2013-05-18 20:16:00,
2013-05-18 13:31:00,62.6,36.6,29.86,WSW,247,1.6,-999.0,38,-99.99,,,0.00,Acu-Link.com,2013-05-18 20:31:00,
2013-05-18 13:47:00,62.6,36.0,29.86,WNW,292,2.0,-999.0,37,-99.99,,,0.00,Acu-Link.com,2013-05-18 20:47:00,
2013-05-18 14:02:00,60.8,34.4,29.87,NNW,337,2.0,-999.0,37,-99.99,,,0.00,Acu-Link.com,2013-05-18 21:02:00,
2013-05-18 14:17:00,60.8,34.4,29.87,SSW,202,2.0,-999.0,37,-99.99,,,0.00,Acu-Link.com,2013-05-18 21:17:00,
2013-05-18 14:32:00,60.8,35.7,29.87,SSE,157,1.6,-999.0,39,-99.99,,,0.00,Acu-Link.com,2013-05-18 21:32:00,
2013-05-18 14:47:00,60.8,33.7,29.87,NNW,337,0.0,-999.0,36,-99.99,,,0.00,Acu-Link.com,2013-05-18 21:47:00,
2013-05-18 15:02:00,60.8,35.7,29.87,WSW,247,2.0,-999.0,39,-99.99,,,0.00,Acu-Link.com,2013-05-18 22:02:00,
2013-05-18 15:18:00,62.6,37.3,29.87,NNE,22,1.1,-999.0,39,-99.99,,,0.00,Acu-Link.com,2013-05-18 22:18:00,
2013-05-18 15:33:00,62.6,36.0,29.87,West,270,2.0,-999.0,37,-99.99,,,0.00,Acu-Link.com,2013-05-18 22:33:00,
2013-05-18 15:48:00,62.6,37.9,29.88,WNW,292,0.0,-999.0,40,-99.99,,,0.00,Acu-Link.com,2013-05-18 22:48:00,
2013-05-18 16:04:00,62.6,37.3,29.88,ENE,67,0.0,-999.0,39,-99.99,,,0.00,Acu-Link.com,2013-05-18 23:04:00,
2013-05-18 16:19:00,62.6,37.9,29.88,WNW,292,3.1,-999.0,40,-99.99,,,0.00,Acu-Link.com,2013-05-18 23:19:00,
2013-05-18 16:34:00,62.6,36.6,29.89,ESE,112,0.0,-999.0,38,-99.99,,,0.00,Acu-Link.com,2013-05-18 23:34:00,
2013-05-18 16:49:00,62.6,36.6,29.89,West,270,1.1,-999.0,38,-99.99,,,0.00,Acu-Link.com,2013-05-18 23:49:00,
2013-05-18 17:04:00,62.6,36.0,29.90,West,270,2.0,-999.0,37,-99.99,,,0.00,Acu-Link.com,2013-05-19 00:04:00,
2013-05-18 17:19:00,64.4,36.2,29.90,WNW,292,2.0,-999.0,35,-99.99,,,0.00,Acu-Link.com,2013-05-19 00:19:00,
2013-05-18 17:34:00,64.4,36.2,29.90,SE,135,1.1,-999.0,35,-99.99,,,0.00,Acu-Link.com,2013-05-19 00:34:00,
2013-05-18 17:50:00,62.6,36.6,29.90,SE,135,0.0,-999.0,38,-99.99,,,0.00,Acu-Link.com,2013-05-19 00:50:00,
2013-05-18 18:05:00,62.6,37.9,29.91,SW,225,0.0,-999.0,40,-99.99,,,0.00,Acu-Link.com,2013-05-19 01:05:00,
2013-05-18 18:20:00,62.6,35.3,29.91,NW,315,2.0,-999.0,36,-99.99,,,0.00,Acu-Link.com,2013-05-19 01:20:00,
2013-05-18 18:35:00,64.4,37.6,29.91,West,270,1.6,-999.0,37,-99.99,,,0.00,Acu-Link.com,2013-05-19 01:35:00,
2013-05-18 18:50:00,62.6,36.0,29.91,ESE,112,3.6,-999.0,37,-99.99,,,0.00,Acu-Link.com,2013-05-19 01:50:00,
2013-05-18 19:05:00,60.8,37.6,29.91,SSE,157,0.0,-999.0,42,-99.99,,,0.00,Acu-Link.com,2013-05-19 02:05:00,
2013-05-18 19:20:00,59.0,37.1,29.92,NE,45,0.0,-999.0,44,-99.99,,,0.00,Acu-Link.com,2013-05-19 02:20:00,
2013-05-18 19:35:00,59.0,38.3,29.92,NE,45,0.0,-999.0,46,-99.99,,,0.00,Acu-Link.com,2013-05-19 02:35:00,
2013-05-18 19:50:00,57.2,38.2,29.92,NE,45,0.0,-999.0,49,-99.99,,,0.00,Acu-Link.com,2013-05-19 02:50:00,
2013-05-18 20:05:00,55.4,37.1,29.93,NE,45,0.0,-999.0,50,-99.99,,,0.00,Acu-Link.com,2013-05-19 03:05:00,
2013-05-18 20:20:00,53.6,36.4,29.93,NE,45,0.0,-999.0,52,-99.99,,,0.00,Acu-Link.com,2013-05-19 03:20:00,
2013-05-18 20:35:00,53.6,36.9,29.93,NE,45,0.0,-999.0,53,-99.99,,,0.00,Acu-Link.com,2013-05-19 03:35:00,
2013-05-18 20:50:00,51.8,36.6,29.94,NE,45,0.0,-999.0,56,-99.99,,,0.00,Acu-Link.com,2013-05-19 03:50:00,
2013-05-18 21:05:00,51.8,36.6,29.95,NE,45,0.0,-999.0,56,-99.99,,,0.00,Acu-Link.com,2013-05-19 04:05:00,
2013-05-18 21:21:00,50.0,36.2,29.95,SW,225,0.0,-999.0,59,-99.99,,,0.00,Acu-Link.com,2013-05-19 04:21:00,
2013-05-18 21:36:00,50.0,36.7,29.96,East,90,0.0,-999.0,60,-99.99,,,0.00,Acu-Link.com,2013-05-19 04:36:00,
2013-05-18 21:51:00,50.0,37.5,29.97,WNW,292,0.0,-999.0,62,-99.99,,,0.00,Acu-Link.com,2013-05-19 04:51:00,
2013-05-18 22:06:00,50.0,38.7,29.98,NW,315,1.1,-999.0,65,-99.99,,,0.00,Acu-Link.com,2013-05-19 05:06:00,
2013-05-18 22:21:00,50.0,39.9,29.99,ENE,67,0.0,-999.0,68,-99.99,,,0.00,Acu-Link.com,2013-05-19 05:21:00,
2013-05-18 22:36:00,50.0,41.3,30.00,NW,315,6.3,-999.0,72,-99.99,,,0.00,Acu-Link.com,2013-05-19 05:36:00,
2013-05-18 22:51:00,50.0,41.7,30.00,ESE,112,0.0,-999.0,73,-99.99,,,0.00,Acu-Link.com,2013-05-19 05:51:00,
2013-05-18 23:06:00,50.0,41.7,30.02,NNW,337,0.0,-999.0,73,-99.99,,,0.00,Acu-Link.com,2013-05-19 06:06:00,
2013-05-18 23:21:00,50.0,41.7,30.02,North,0,0.0,-999.0,73,-99.99,,,0.00,Acu-Link.com,2013-05-19 06:21:00,
2013-05-18 23:36:00,48.2,40.3,30.03,East,90,0.0,-999.0,74,-99.99,,,0.00,Acu-Link.com,2013-05-19 06:36:00,
2013-05-18 23:51:00,48.2,40.7,30.03,ESE,112,0.0,-999.0,75,-99.99,,,0.00,Acu-Link.com,2013-05-19 06:51:00,